Archival Weather

Norman Y Mineta San Jose Intl

San Jose, California (KSJC)

Report from: Tuesday, February 13, 2024 12:53 PM PST
Current time: Friday, June 21, 2024 12:37 AM PDT

Current weather – Weather history – Daily summaries
Weather forecast

Temperature17.2°C (63.0°F)
Dew point6.7°C (44.1°F)
Winds 6 kts (3.1 m/s, 6.9 mph) Vrb
Winds variableWinds variable
Visibility10 mi. (16.1 km)
Clouds Few clouds 2,300 ft. (701 m)
Scattered clouds 5,500 ft. (1,676 m)
Ceiling: Broken clouds 9,000 ft. (2,743 m)
Altimeter30.01 in.Hg (1016 mB)
Relative humidity50 %
Density altitude299 ft. (91 m)
Sea-level pressure101.6 kPa (1016 mB, 30.01 in.Hg)
Remarks Automated weather observing station with precipitation discriminator
Pressure falling more quickly
Flight conditions Visual Meteorological Conditions
Raw dataKSJC 132053Z VRB06KT 10SM FEW023 SCT055 BKN090 17/07 A3001 RMK AO2 SLP163 T01720067 58013
An error has occurred. This application may no longer respond until reloaded. Reload 🗙